Afton, New York
Current Conditions -  °F | °C
As of 10:53 PM on Tuesday 27 Jan 2015 (Local Time) from KBGM Reporting Station
Clear Clear  
Wind Chill: -8°   Ceiling: Unl
Heat Index:   Visibility: 10mi
Dew Point: -5°   Wind: 14mph
Humidity: 55%   Direction: 330°NNW
Pressure: 29.87"   Gusts: NA
Location:  42.23°N, 75.53°W
Report Text: KBGM 280353Z 33012KT 10SM CLR M13/M21 A2987 RMK AO2 SLP149 T11331206
Loading
Personal Weather Stations






























Interactive Weather Map New forecast layout! Learn more

10-Day Weather Forecast

Advertisements
Track Severe Weather on mobile